createdAt,value
2022-09-04T11:28:36.196Z,99.99
2022-09-04T11:29:36.125Z,99.99
2022-09-04T11:30:36.119Z,99.99
2022-09-04T11:31:36.171Z,99.99
2022-09-04T11:37:20.814Z,99.99
2022-09-04T11:46:13.758Z,99.99
2022-09-04T11:47:13.714Z,99.99
2022-09-04T12:26:28.236Z,99.99
2022-09-04T12:27:28.178Z,99.99
2022-09-04T12:28:28.163Z,99.99
2022-09-04T12:29:28.161Z,99.99
2022-09-04T12:30:28.137Z,99.99
2022-09-04T12:31:28.152Z,99.99
2022-09-04T12:32:28.153Z,99.99
2022-09-04T12:33:28.114Z,99.99
2022-09-04T12:34:28.085Z,99.56
2022-09-04T12:35:31.757Z,99.99
2022-09-04T12:36:28.064Z,99.99
2022-09-04T12:37:28.076Z,99.99
2022-09-04T12:38:28.043Z,97.17
2022-09-04T12:39:28.042Z,95.60
2022-09-04T12:40:28.027Z,94.52
2022-09-04T12:41:28.006Z,90.55
2022-09-04T12:42:27.993Z,88.93
2022-09-04T12:43:28.007Z,88.87
2022-09-04T12:44:27.973Z,88.82
2022-09-04T12:45:28.014Z,88.08
2022-09-04T12:46:27.959Z,86.16
2022-09-04T12:47:27.942Z,85.30
2022-09-04T12:48:27.953Z,87.27
2022-09-04T12:49:27.937Z,90.31
2022-09-04T12:50:27.910Z,90.01
2022-09-04T12:51:27.916Z,88.24
2022-09-04T12:52:27.892Z,88.13
2022-09-04T12:53:27.911Z,86.48
2022-09-04T12:54:27.910Z,87.37
2022-09-04T12:55:29.144Z,89.25
2022-09-04T12:56:27.858Z,91.36
2022-09-04T12:57:27.843Z,92.58
2022-09-04T12:58:27.841Z,94.05
2022-09-04T12:59:27.841Z,95.03
2022-09-04T13:00:27.825Z,95.17
2022-09-04T13:01:27.923Z,95.41
2022-09-04T13:02:27.941Z,93.60
2022-09-04T13:03:27.786Z,92.19
2022-09-04T13:04:27.901Z,92.78
2022-09-04T13:05:27.803Z,92.05
2022-09-04T13:06:27.765Z,91.75
2022-09-04T13:07:27.759Z,90.67
2022-09-04T13:08:27.894Z,89.73
2022-09-04T13:09:27.785Z,88.66
2022-09-04T13:10:27.727Z,88.35
2022-09-04T13:11:27.718Z,90.65
2022-09-04T13:12:27.701Z,88.92
2022-09-04T13:13:27.691Z,85.66
2022-09-04T13:14:27.702Z,85.75
2022-09-04T13:15:27.693Z,84.13
2022-09-04T13:16:27.723Z,84.33
2022-09-04T13:17:27.653Z,83.82
2022-09-04T13:18:27.654Z,83.94
2022-09-04T13:19:27.637Z,82.39
2022-09-04T13:20:27.630Z,84.50
2022-09-04T13:21:27.630Z,85.96
2022-09-04T13:22:27.607Z,86.17
2022-09-04T13:23:27.606Z,85.42
2022-09-04T13:24:27.589Z,84.38
2022-09-04T13:25:27.583Z,82.21
2022-09-04T13:26:27.605Z,80.62
2022-09-04T13:27:27.565Z,81.52
2022-09-04T13:28:27.597Z,81.21
2022-09-04T13:29:27.547Z,77.77
2022-09-04T13:30:27.553Z,76.91
2022-09-04T13:31:27.609Z,78.15
2022-09-04T13:32:27.547Z,79.39
2022-09-04T13:33:27.523Z,79.68
2022-09-04T13:34:27.516Z,82.05
2022-09-04T13:35:27.506Z,82.05
2022-09-04T13:36:27.523Z,81.13
2022-09-04T13:43:32.066Z,87.15
2022-09-04T13:44:32.053Z,87.19
2022-09-04T13:45:32.044Z,87.23
2022-09-04T13:46:32.088Z,85.52
2022-09-04T13:47:33.039Z,85.29
2022-09-04T13:48:32.030Z,81.92
2022-09-04T13:49:32.005Z,81.17
2022-09-04T13:50:31.995Z,81.30
2022-09-04T13:51:31.978Z,79.03
2022-09-04T13:52:31.980Z,79.25
2022-09-04T13:53:31.971Z,80.05
2022-09-04T13:54:31.977Z,79.71
2022-09-04T13:55:31.965Z,79.41
2022-09-04T13:56:31.949Z,79.57
2022-09-04T13:57:31.950Z,80.66
2022-09-04T13:58:31.943Z,81.77
2022-09-04T13:59:31.923Z,81.77
2022-09-04T14:00:31.970Z,82.11
2022-09-04T14:01:31.889Z,81.07
2022-09-04T14:02:31.906Z,79.64
2022-09-04T14:03:31.904Z,78.86
2022-09-04T14:04:31.903Z,79.55
2022-09-04T14:05:31.865Z,80.23
2022-09-04T14:06:31.857Z,80.25
2022-09-04T14:07:31.871Z,81.48
2022-09-04T14:08:31.880Z,82.97
2022-09-04T14:09:31.823Z,82.69
2022-09-04T14:10:31.826Z,84.75
2022-09-04T14:11:31.808Z,85.64
2022-09-04T14:12:31.810Z,87.29
2022-09-04T14:13:35.017Z,87.05
2022-09-04T14:14:31.782Z,85.28
2022-09-04T14:15:31.775Z,83.66
2022-09-04T14:16:31.863Z,84.34
2022-09-04T14:17:31.765Z,84.77
2022-09-04T14:18:31.767Z,82.50
2022-09-04T14:19:31.748Z,80.04
2022-09-04T14:20:31.742Z,79.47
2022-09-04T14:21:31.733Z,77.22
2022-09-04T14:22:33.440Z,77.45
2022-09-04T14:23:31.810Z,76.46
2022-09-04T14:24:31.714Z,74.29
2022-09-04T14:25:31.691Z,74.22
2022-09-04T14:26:31.690Z,73.90
2022-09-04T14:27:31.678Z,73.80
2022-09-04T14:28:31.679Z,75.30
2022-09-04T14:29:31.657Z,76.87
2022-09-04T14:30:31.676Z,77.42
2022-09-04T14:31:32.691Z,75.83
2022-09-04T14:32:31.646Z,76.42
2022-09-04T14:33:35.567Z,76.84
2022-09-04T14:34:31.623Z,77.55
2022-09-04T14:35:31.625Z,78.22
2022-09-04T14:36:31.610Z,80.35
2022-09-04T14:37:31.612Z,81.87
2022-09-04T14:38:31.610Z,82.01
2022-09-04T14:39:31.627Z,79.80
2022-09-04T14:40:31.585Z,79.61
2022-09-04T14:41:36.022Z,81.35
2022-09-04T14:42:31.596Z,79.27
2022-09-04T14:43:31.587Z,78.19
2022-09-04T14:44:31.569Z,78.06
2022-09-04T14:45:31.551Z,77.76
2022-09-04T14:46:31.587Z,77.73
2022-09-04T14:47:31.541Z,77.92
2022-09-04T14:48:31.548Z,78.16
2022-09-04T14:49:31.527Z,78.84
2022-09-04T14:50:31.531Z,78.23
2022-09-04T14:51:31.527Z,76.66
2022-09-04T14:52:31.509Z,77.06
2022-09-04T14:53:31.515Z,77.48
2022-09-04T14:54:31.507Z,76.07
2022-09-04T14:55:31.490Z,77.25
2022-09-04T14:56:31.485Z,76.17
2022-09-04T14:57:31.480Z,76.17
2022-09-04T14:58:31.485Z,75.95
2022-09-04T14:59:31.475Z,75.07
2022-09-04T15:00:31.464Z,74.32
2022-09-04T15:01:31.528Z,74.52
2022-09-04T15:02:31.463Z,74.52
2022-09-04T15:03:31.493Z,74.64
2022-09-04T15:04:34.031Z,76.34
2022-09-04T15:05:31.436Z,76.78
2022-09-04T15:06:32.490Z,74.42
2022-09-04T15:07:31.431Z,73.54
2022-09-04T15:08:31.433Z,72.19
2022-09-04T15:09:31.419Z,73.21
2022-09-04T15:10:31.444Z,72.99
2022-09-04T15:11:31.925Z,71.84
2022-09-04T15:12:31.400Z,70.79
2022-09-04T15:13:31.418Z,71.64
2022-09-04T15:14:31.391Z,74.14
2022-09-04T15:15:31.387Z,77.10
2022-09-04T15:16:31.437Z,78.43
2022-09-04T15:17:31.377Z,79.57
2022-09-04T15:18:31.389Z,80.54
2022-09-04T15:19:31.370Z,79.39
2022-09-04T15:20:31.364Z,81.25
2022-09-04T15:21:31.357Z,81.64
2022-09-04T15:22:31.361Z,81.93
2022-09-04T15:23:31.359Z,82.13
2022-09-04T15:24:31.340Z,81.93
2022-09-04T15:25:56.844Z,81.74
2022-09-04T15:26:31.327Z,80.37
2022-09-04T15:27:31.322Z,82.24
2022-09-04T15:28:31.340Z,82.53
2022-09-04T15:29:31.323Z,83.22
2022-09-04T15:30:33.558Z,83.31
2022-09-04T15:31:31.370Z,82.73
2022-09-04T15:32:31.289Z,82.82
2022-09-04T15:34:09.575Z,84.25
2022-09-04T15:35:09.557Z,86.10
2022-09-04T15:36:09.538Z,84.83
2022-09-04T15:37:09.526Z,85.52
2022-09-04T15:38:09.542Z,85.13
2022-09-04T15:39:09.510Z,85.22
2022-09-04T15:40:09.531Z,84.74
2022-09-04T15:41:17.561Z,84.64
2022-09-04T15:42:09.483Z,85.57
2022-09-04T15:43:09.487Z,86.16
2022-09-04T15:44:09.475Z,85.38
2022-09-04T15:45:09.871Z,86.10
2022-09-04T15:46:17.274Z,86.16
2022-09-04T15:47:09.441Z,85.71
2022-09-04T15:48:09.444Z,85.28
2022-09-04T15:49:09.431Z,85.18
2022-09-04T15:50:09.412Z,85.86
2022-09-04T15:51:09.415Z,86.16
2022-09-04T15:52:09.407Z,86.06
2022-09-04T15:53:09.414Z,85.08
2022-09-04T15:54:09.382Z,85.08
2022-09-04T15:55:09.366Z,84.40
2022-09-04T15:56:09.394Z,85.18
2022-09-04T15:57:09.360Z,85.71
2022-09-04T15:58:09.359Z,85.42
2022-09-04T16:03:48.762Z,83.87
2022-09-04T16:04:48.752Z,84.27
2022-09-04T16:05:48.743Z,86.60
2022-09-04T16:06:48.727Z,85.92
2022-09-04T16:07:49.510Z,85.57
2022-09-04T16:08:48.716Z,84.89
2022-09-04T16:09:48.698Z,86.25
2022-09-04T16:10:48.688Z,84.83
2022-09-04T16:11:48.688Z,83.62
2022-09-04T16:12:48.673Z,84.17
2022-09-04T16:13:48.676Z,85.63
2022-09-04T16:14:48.662Z,85.53
2022-09-04T16:15:48.692Z,85.82
2022-09-04T16:16:48.636Z,85.57
2022-09-04T16:17:48.629Z,86.02
2022-09-04T16:18:48.633Z,86.11
2022-09-04T16:19:48.618Z,86.41
2022-09-04T16:20:48.613Z,86.41
2022-09-04T16:21:48.602Z,86.66
2022-09-04T16:22:48.589Z,87.38
2022-09-04T16:23:48.592Z,85.92
2022-09-04T16:24:48.571Z,87.48
2022-09-04T16:25:48.561Z,86.21
2022-09-04T16:26:48.586Z,85.92
2022-09-04T16:27:48.552Z,87.34
2022-09-04T16:28:48.556Z,86.17
2022-09-04T16:29:48.533Z,85.78
2022-09-04T16:30:48.559Z,86.85
